Time;durP1;ratioP1;P1;durP2;ratioP2;P2;SDS_P1;SDS_P2;PMS_P1;PMS_P2;Temp;Humidity;BMP_temperature;BMP_pressure;BME280_temperature;BME280_humidity;BME280_pressure;Samples;Min_cycle;Max_cycle;Signal;HPM_P1;HPM_P2
2021/11/22 00:01:27;;;;;;;16.43;11.27;;;;;;;;;;4955433;29;20218;-76
2021/11/22 00:04:31;;;;;;;20.23;12.40;;;;;;;;;;4970714;28;20227;-76
2021/11/22 00:07:35;;;;;;;18.13;11.03;;;;;;;;;;4974919;28;20257;-76
2021/11/22 00:10:39;;;;;;;17.73;11.13;;;;;;;;;;4963385;28;20217;-76
2021/11/22 00:13:44;;;;;;;19.83;10.80;;;;;;;;;;4965628;28;20191;-76
2021/11/22 00:16:48;;;;;;;17.07;10.50;;;;;;;;;;4956001;29;20186;-76
2021/11/22 00:19:52;;;;;;;18.87;10.63;;;;;;;;;;4972897;28;20198;-76
2021/11/22 00:22:56;;;;;;;16.87;10.73;;;;;;;;;;4945872;28;20726;-76
2021/11/22 00:26:00;;;;;;;18.70;11.27;;;;;;;;;;4962624;28;20217;-76
2021/11/22 00:29:04;;;;;;;16.77;9.83;;;;;;;;;;4942702;29;20195;-76
2021/11/22 00:32:24;;;;;;;18.57;11.47;;;;;;;;;;4933936;28;20216;-76
2021/11/22 00:35:49;;;;;;;17.57;11.30;;;;;;;;;;4954408;28;20207;-76
2021/11/22 00:38:53;;;;;;;18.80;11.63;;;;;;;;;;4954062;28;20210;-75
2021/11/22 00:41:57;;;;;;;19.40;11.83;;;;;;;;;;4953840;29;20287;-76
2021/11/22 00:45:02;;;;;;;17.47;10.70;;;;;;;;;;4943110;29;20574;-76
2021/11/22 00:48:07;;;;;;;18.13;11.63;;;;;;;;;;4954864;29;20658;-76
2021/11/22 00:51:11;;;;;;;16.87;11.03;;;;;;;;;;4942445;29;20223;-76
2021/11/22 00:54:15;;;;;;;18.87;11.40;;;;;;;;;;4945329;28;20617;-75
2021/11/22 00:57:19;;;;;;;18.10;11.03;;;;;;;;;;4950958;28;20186;-75
2021/11/22 01:00:24;;;;;;;17.27;10.60;;;;;;;;;;4962355;28;20661;-76
2021/11/22 01:03:28;;;;;;;20.20;11.83;;;;;;;;;;4961802;28;20191;-76
2021/11/22 01:06:33;;;;;;;19.53;12.13;;;;;;;;;;4953730;29;20183;-76
2021/11/22 01:09:36;;;;;;;21.43;11.80;;;;;;;;;;4948118;28;20198;-76
2021/11/22 01:12:41;;;;;;;17.37;10.77;;;;;;;;;;4961984;28;20233;-76
2021/11/22 01:15:45;;;;;;;19.67;11.87;;;;;;;;;;4953459;29;20202;-76
2021/11/22 01:18:50;;;;;;;19.37;11.00;;;;;;;;;;4940948;29;20693;-76
2021/11/22 01:21:54;;;;;;;18.57;12.30;;;;;;;;;;4970715;28;20554;-75
2021/11/22 01:24:58;;;;;;;18.13;11.00;;;;;;;;;;4931479;28;1048659;-76
2021/11/22 01:28:03;;;;;;;20.67;12.53;;;;;;;;;;4963984;28;20546;-76
2021/11/22 01:31:07;;;;;;;18.23;10.80;;;;;;;;;;4940951;29;20227;-76
2021/11/22 01:34:12;;;;;;;20.57;12.50;;;;;;;;;;4943030;29;20194;-76
2021/11/22 01:37:16;;;;;;;23.20;12.37;;;;;;;;;;4948665;28;20201;-76
2021/11/22 01:40:23;;;;;;;23.37;12.53;;;;;;;;;;4973581;28;20210;-76
2021/11/22 01:43:28;;;;;;;19.30;12.07;;;;;;;;;;4961717;28;20200;-76
2021/11/22 01:46:32;;;;;;;19.90;12.57;;;;;;;;;;4962251;28;20206;-76
2021/11/22 01:49:36;;;;;;;21.07;12.70;;;;;;;;;;4942993;29;20211;-76
2021/11/22 01:52:41;;;;;;;18.70;11.90;;;;;;;;;;4946562;29;20223;-76
2021/11/22 01:55:46;;;;;;;18.30;11.87;;;;;;;;;;4963011;28;20191;-76
2021/11/22 01:58:51;;;;;;;22.33;12.83;;;;;;;;;;4976979;28;20549;-76
2021/11/22 02:01:55;;;;;;;21.47;12.63;;;;;;;;;;4960410;28;20230;-76
2021/11/22 02:04:59;;;;;;;22.70;13.63;;;;;;;;;;4958655;29;20175;-76
2021/11/22 02:08:05;;;;;;;26.73;15.17;;;;;;;;;;4957731;29;20546;-76
2021/11/22 02:11:10;;;;;;;21.77;13.33;;;;;;;;;;4966839;28;20226;-76
2021/11/22 02:14:15;;;;;;;20.83;13.17;;;;;;;;;;4965671;28;20179;-76
2021/11/22 02:17:19;;;;;;;23.57;13.23;;;;;;;;;;4976691;28;20188;-76
2021/11/22 02:20:26;;;;;;;22.43;13.17;;;;;;;;;;4967580;28;20207;-76
2021/11/22 02:23:30;;;;;;;21.23;12.40;;;;;;;;;;4963133;28;20215;-76
2021/11/22 02:26:36;;;;;;;22.33;13.23;;;;;;;;;;4957172;29;20187;-76
2021/11/22 02:29:40;;;;;;;21.63;13.47;;;;;;;;;;4952484;29;21186;-76
2021/11/22 02:32:45;;;;;;;24.13;14.30;;;;;;;;;;4961636;28;20229;-76
2021/11/22 02:35:54;;;;;;;22.93;13.27;;;;;;;;;;4976371;28;20194;-76
2021/11/22 02:38:58;;;;;;;22.00;12.53;;;;;;;;;;4976561;28;20255;-76
2021/11/22 02:42:03;;;;;;;23.00;13.87;;;;;;;;;;4976919;28;20234;-76
2021/11/22 02:45:10;;;;;;;22.60;13.97;;;;;;;;;;4957610;29;20192;-76
2021/11/22 02:48:14;;;;;;;22.23;13.70;;;;;;;;;;4976986;28;20657;-76
2021/11/22 02:51:18;;;;;;;24.50;13.73;;;;;;;;;;4956675;29;20678;-76
2021/11/22 02:54:22;;;;;;;24.03;13.20;;;;;;;;;;4956966;28;20195;-76
2021/11/22 02:57:26;;;;;;;22.23;12.87;;;;;;;;;;4957612;29;20187;-76
2021/11/22 03:00:34;;;;;;;19.63;13.40;;;;;;;;;;4956833;29;20189;-76
2021/11/22 03:03:38;;;;;;;24.20;14.23;;;;;;;;;;4962903;28;20196;-76
2021/11/22 03:06:44;;;;;;;21.93;13.83;;;;;;;;;;4945714;29;20536;-76
2021/11/22 03:09:48;;;;;;;23.33;13.73;;;;;;;;;;4956348;29;20199;-76
2021/11/22 03:12:53;;;;;;;23.93;14.03;;;;;;;;;;4967560;28;20218;-76
2021/11/22 03:15:57;;;;;;;22.37;14.00;;;;;;;;;;4957073;29;20183;-76
2021/11/22 03:19:01;;;;;;;23.40;13.50;;;;;;;;;;4974089;28;20214;-76
2021/11/22 03:22:06;;;;;;;22.20;13.83;;;;;;;;;;4950857;28;20710;-76
2021/11/22 03:25:11;;;;;;;21.53;13.80;;;;;;;;;;4959932;23;20202;-77
2021/11/22 03:28:17;;;;;;;21.83;13.87;;;;;;;;;;4964407;28;20210;-76
2021/11/22 03:31:21;;;;;;;23.93;13.80;;;;;;;;;;4955819;29;20230;-76
2021/11/22 03:34:26;;;;;;;24.27;14.20;;;;;;;;;;4955996;29;20554;-77
2021/11/22 03:37:32;;;;;;;25.33;14.40;;;;;;;;;;4956822;29;20539;-76
2021/11/22 03:40:36;;;;;;;22.30;13.83;;;;;;;;;;4955833;29;20187;-77
2021/11/22 03:43:55;;;;;;;23.37;13.70;;;;;;;;;;4956660;29;20548;-76
2021/11/22 03:47:00;;;;;;;23.77;13.87;;;;;;;;;;4956419;29;20691;-76
2021/11/22 03:50:05;;;;;;;22.90;13.83;;;;;;;;;;4945935;28;20199;-77
2021/11/22 03:53:09;;;;;;;23.03;14.07;;;;;;;;;;4955841;29;20214;-77
2021/11/22 03:56:13;;;;;;;24.10;14.03;;;;;;;;;;4955753;29;20199;-76
2021/11/22 03:59:18;;;;;;;23.47;13.23;;;;;;;;;;4955521;29;20183;-77
2021/11/22 04:02:22;;;;;;;27.90;14.73;;;;;;;;;;4956223;29;20222;-77
2021/11/22 04:05:26;;;;;;;24.33;15.77;;;;;;;;;;4955487;29;20566;-76
2021/11/22 04:08:30;;;;;;;25.07;13.77;;;;;;;;;;4955781;29;20190;-76
2021/11/22 04:11:35;;;;;;;25.27;13.90;;;;;;;;;;4944232;29;20627;-77
2021/11/22 04:14:41;;;;;;;23.23;13.27;;;;;;;;;;4954961;28;20567;-77
2021/11/22 04:17:46;;;;;;;21.87;13.17;;;;;;;;;;4956205;29;20184;-76
2021/11/22 04:20:50;;;;;;;24.20;13.83;;;;;;;;;;4947597;29;20230;-75
2021/11/22 04:23:57;;;;;;;22.93;13.57;;;;;;;;;;4955935;29;20558;-75
2021/11/22 04:27:02;;;;;;;22.87;13.70;;;;;;;;;;4963555;28;20637;-75
2021/11/22 04:30:09;;;;;;;22.03;13.43;;;;;;;;;;4963788;28;20648;-75
2021/11/22 04:33:13;;;;;;;21.93;14.10;;;;;;;;;;4944163;29;20970;-75
2021/11/22 04:36:17;;;;;;;21.93;13.57;;;;;;;;;;4955941;29;20191;-75
2021/11/22 04:39:22;;;;;;;21.90;13.23;;;;;;;;;;4955953;28;20618;-75
2021/11/22 04:42:26;;;;;;;26.30;13.90;;;;;;;;;;4955690;29;20211;-75
2021/11/22 04:45:31;;;;;;;23.47;14.20;;;;;;;;;;4955681;29;20191;-75
2021/11/22 04:48:35;;;;;;;19.63;12.40;;;;;;;;;;4955420;29;20188;-76
2021/11/22 04:51:39;;;;;;;21.50;13.27;;;;;;;;;;4955495;29;20232;-75
2021/11/22 04:54:44;;;;;;;24.23;14.17;;;;;;;;;;4954486;29;20663;-75
2021/11/22 04:57:49;;;;;;;23.23;13.57;;;;;;;;;;4955206;29;20195;-75
2021/11/22 05:00:53;;;;;;;22.53;13.43;;;;;;;;;;4967430;28;20241;-75
2021/11/22 05:03:57;;;;;;;25.97;14.93;;;;;;;;;;4962872;28;20195;-75
2021/11/22 05:07:05;;;;;;;27.23;15.13;;;;;;;;;;4972417;28;20192;-76
2021/11/22 05:10:10;;;;;;;30.50;15.20;;;;;;;;;;4962472;28;20195;-76
2021/11/22 05:13:16;;;;;;;21.70;13.43;;;;;;;;;;4973810;28;20692;-76
2021/11/22 05:16:20;;;;;;;26.93;15.33;;;;;;;;;;4974356;28;20706;-75
2021/11/22 05:19:30;;;;;;;27.87;15.67;;;;;;;;;;4971888;28;20569;-75
2021/11/22 05:22:34;;;;;;;23.13;14.17;;;;;;;;;;4973745;28;20221;-76
2021/11/22 05:25:39;;;;;;;24.57;15.43;;;;;;;;;;4961807;28;20207;-76
2021/11/22 05:28:43;;;;;;;26.33;14.13;;;;;;;;;;4974113;28;20198;-76
2021/11/22 05:31:47;;;;;;;24.43;14.10;;;;;;;;;;4955909;28;20232;-76
2021/11/22 05:34:54;;;;;;;23.80;14.13;;;;;;;;;;4943410;28;20194;-76
2021/11/22 05:37:58;;;;;;;25.87;14.77;;;;;;;;;;4973589;28;20660;-76
2021/11/22 05:41:03;;;;;;;28.87;13.97;;;;;;;;;;4955867;28;20222;-76
2021/11/22 05:44:07;;;;;;;25.13;13.97;;;;;;;;;;4954910;29;20539;-76
2021/11/22 05:47:14;;;;;;;25.47;13.60;;;;;;;;;;4954151;28;20570;-76
2021/11/22 05:50:19;;;;;;;23.27;13.33;;;;;;;;;;4954906;28;20188;-77
2021/11/22 05:53:24;;;;;;;25.93;13.97;;;;;;;;;;4954920;29;20223;-76
2021/11/22 05:56:28;;;;;;;23.67;13.83;;;;;;;;;;4942974;29;20682;-76
2021/11/22 05:59:32;;;;;;;25.67;13.97;;;;;;;;;;4954101;29;20184;-76
2021/11/22 06:02:37;;;;;;;24.93;14.07;;;;;;;;;;4971931;28;20225;-76
2021/11/22 06:05:41;;;;;;;25.43;14.47;;;;;;;;;;4973593;28;20206;-76
2021/11/22 06:08:45;;;;;;;25.43;14.00;;;;;;;;;;4973027;28;20203;-76
2021/11/22 06:11:49;;;;;;;30.13;14.83;;;;;;;;;;4940451;29;20227;-76
2021/11/22 06:14:54;;;;;;;24.87;14.87;;;;;;;;;;4964149;28;20187;-76
2021/11/22 06:17:58;;;;;;;25.07;14.27;;;;;;;;;;4973751;28;20186;-76
2021/11/22 06:21:03;;;;;;;26.07;14.10;;;;;;;;;;4973139;28;20223;-75
2021/11/22 06:24:07;;;;;;;23.37;13.77;;;;;;;;;;4972314;28;20204;-76
2021/11/22 06:27:11;;;;;;;23.73;14.17;;;;;;;;;;4973401;28;20221;-76
2021/11/22 06:30:15;;;;;;;26.93;14.03;;;;;;;;;;4961940;28;20204;-75
2021/11/22 06:33:19;;;;;;;27.00;15.17;;;;;;;;;;4954605;29;20690;-76
2021/11/22 06:36:24;;;;;;;27.80;14.53;;;;;;;;;;4959431;28;20200;-75
2021/11/22 06:39:28;;;;;;;24.40;13.77;;;;;;;;;;4971469;28;20192;-76
2021/11/22 06:42:32;;;;;;;22.93;14.03;;;;;;;;;;4972796;28;20724;-76
2021/11/22 06:45:37;;;;;;;27.40;15.30;;;;;;;;;;4976586;28;20194;-76
2021/11/22 06:48:41;;;;;;;27.03;15.70;;;;;;;;;;4976649;28;20190;-76
2021/11/22 06:51:46;;;;;;;25.73;14.40;;;;;;;;;;4977940;28;20232;-76
2021/11/22 06:54:52;;;;;;;28.57;14.43;;;;;;;;;;4977080;28;20184;-75
2021/11/22 06:58:03;;;;;;;29.07;14.33;;;;;;;;;;4975732;28;20206;-76
2021/11/22 07:01:07;;;;;;;25.63;14.40;;;;;;;;;;4952516;28;20227;-76
2021/11/22 07:04:11;;;;;;;30.67;13.70;;;;;;;;;;4974237;28;20194;-75
2021/11/22 07:07:15;;;;;;;27.10;14.83;;;;;;;;;;4976779;28;20178;-75
2021/11/22 07:10:21;;;;;;;26.00;13.40;;;;;;;;;;4975997;28;20189;-75
2021/11/22 07:13:25;;;;;;;25.60;13.47;;;;;;;;;;4976519;28;20577;-76
2021/11/22 07:16:29;;;;;;;25.10;13.33;;;;;;;;;;4975888;28;20215;-75
2021/11/22 07:19:34;;;;;;;24.30;13.33;;;;;;;;;;4975678;28;20672;-75
2021/11/22 07:22:38;;;;;;;21.93;12.10;;;;;;;;;;4975440;28;20222;-75
2021/11/22 07:25:42;;;;;;;24.83;12.73;;;;;;;;;;4975786;28;20229;-75
2021/11/22 07:28:46;;;;;;;23.07;12.07;;;;;;;;;;4975720;28;20190;-75
2021/11/22 07:31:50;;;;;;;24.60;12.97;;;;;;;;;;4953599;28;20221;-75
2021/11/22 07:34:55;;;;;;;25.67;13.47;;;;;;;;;;4976170;28;20202;-75
2021/11/22 07:38:00;;;;;;;21.63;12.30;;;;;;;;;;4976573;28;20202;-75
2021/11/22 07:41:04;;;;;;;28.63;13.73;;;;;;;;;;4975284;28;20715;-75
2021/11/22 07:44:08;;;;;;;27.77;13.23;;;;;;;;;;4976080;28;20186;-75
2021/11/22 07:47:12;;;;;;;23.03;12.07;;;;;;;;;;4975099;28;20200;-75
2021/11/22 07:50:18;;;;;;;24.43;12.87;;;;;;;;;;4974511;28;20542;-74
2021/11/22 07:53:22;;;;;;;22.13;12.47;;;;;;;;;;4976173;28;20680;-74
2021/11/22 07:56:27;;;;;;;28.47;13.87;;;;;;;;;;4975962;28;20183;-75
2021/11/22 07:59:31;;;;;;;23.93;12.83;;;;;;;;;;4975957;28;20190;-75
2021/11/22 08:02:35;;;;;;;27.77;12.77;;;;;;;;;;4975783;28;20227;-75
2021/11/22 08:05:39;;;;;;;24.47;11.77;;;;;;;;;;4972135;28;20194;-75
2021/11/22 08:08:44;;;;;;;20.60;11.03;;;;;;;;;;4971439;28;20183;-75
2021/11/22 08:12:02;;;;;;;21.03;12.13;;;;;;;;;;4970985;28;20302;-75
2021/11/22 08:15:09;;;;;;;20.13;11.20;;;;;;;;;;4971420;28;20191;-75
2021/11/22 08:18:16;;;;;;;22.83;12.47;;;;;;;;;;4970759;28;20199;-75
2021/11/22 08:21:20;;;;;;;22.90;11.40;;;;;;;;;;4971636;28;20233;-75
2021/11/22 08:24:26;;;;;;;20.93;11.93;;;;;;;;;;4971730;28;20247;-76
2021/11/22 08:27:31;;;;;;;19.57;10.80;;;;;;;;;;4970685;28;20186;-75
2021/11/22 08:30:37;;;;;;;19.67;11.60;;;;;;;;;;4970653;28;20193;-76
2021/11/22 08:33:41;;;;;;;22.57;11.73;;;;;;;;;;4971482;28;20209;-75
2021/11/22 08:36:45;;;;;;;19.80;11.33;;;;;;;;;;4971551;28;20669;-75
2021/11/22 08:39:50;;;;;;;21.53;11.27;;;;;;;;;;4971546;28;20182;-75
2021/11/22 08:42:54;;;;;;;20.70;10.87;;;;;;;;;;4971595;28;20192;-75
2021/11/22 08:45:59;;;;;;;56.93;26.27;;;;;;;;;;4970561;28;20670;-75
2021/11/22 08:49:05;;;;;;;58.20;27.17;;;;;;;;;;4971064;28;20194;-77
2021/11/22 08:52:11;;;;;;;25.10;13.60;;;;;;;;;;4971225;28;20225;-77
2021/11/22 08:55:17;;;;;;;20.50;11.00;;;;;;;;;;4971767;28;20178;-77
2021/11/22 08:58:22;;;;;;;35.90;20.10;;;;;;;;;;4970983;28;20194;-76
2021/11/22 09:01:27;;;;;;;19.40;10.83;;;;;;;;;;4970795;28;20233;-77
2021/11/22 09:04:31;;;;;;;29.00;16.30;;;;;;;;;;4970540;28;20184;-77
2021/11/22 09:07:35;;;;;;;18.73;10.23;;;;;;;;;;4954223;28;20187;-77
2021/11/22 09:10:39;;;;;;;20.17;9.90;;;;;;;;;;4971236;28;20565;-76
2021/11/22 09:13:44;;;;;;;21.60;12.70;;;;;;;;;;4967364;28;20206;-77
2021/11/22 09:16:49;;;;;;;31.13;19.33;;;;;;;;;;4951835;29;20197;-77
2021/11/22 09:19:53;;;;;;;19.33;10.57;;;;;;;;;;4952881;29;20206;-76
2021/11/22 09:22:57;;;;;;;16.00;9.00;;;;;;;;;;4958323;28;20191;-77
2021/11/22 09:26:01;;;;;;;17.83;10.07;;;;;;;;;;4950664;29;20207;-77
2021/11/22 09:29:05;;;;;;;17.17;9.90;;;;;;;;;;4954058;28;20207;-78
2021/11/22 09:32:19;;;;;;;16.13;8.70;;;;;;;;;;4953487;28;20215;-77
2021/11/22 09:35:38;;;;;;;19.10;9.93;;;;;;;;;;4965045;28;20555;-77
2021/11/22 09:38:42;;;;;;;19.80;10.13;;;;;;;;;;4971869;28;20569;-78
2021/11/22 09:41:48;;;;;;;15.00;9.20;;;;;;;;;;4948284;28;20222;-77
2021/11/22 09:44:52;;;;;;;15.23;8.17;;;;;;;;;;4958576;28;20444;-77
2021/11/22 09:47:58;;;;;;;13.77;8.10;;;;;;;;;;4958645;28;20587;-78
2021/11/22 09:51:03;;;;;;;59.27;32.03;;;;;;;;;;4971516;28;20222;-77
2021/11/22 09:54:07;;;;;;;14.20;8.20;;;;;;;;;;4965590;28;20551;-77
2021/11/22 09:57:12;;;;;;;13.60;7.37;;;;;;;;;;4954751;28;20190;-78
2021/11/22 10:00:16;;;;;;;12.23;6.43;;;;;;;;;;4970543;28;20508;-77
2021/11/22 10:03:25;;;;;;;10.87;6.70;;;;;;;;;;4955524;28;20195;-77
2021/11/22 10:07:03;;;;;;;12.40;7.37;;;;;;;;;;4950901;29;20179;-77
2021/11/22 10:10:12;;;;;;;11.30;6.63;;;;;;;;;;4941408;28;20203;-77
2021/11/22 10:13:40;;;;;;;11.27;6.63;;;;;;;;;;4982255;23;20238;-72
2021/11/22 10:16:45;;;;;;;9.33;6.50;;;;;;;;;;4974628;28;20194;-72
2021/11/22 10:20:10;;;;;;;10.40;6.33;;;;;;;;;;4977220;28;20198;-72
2021/11/22 10:23:22;;;;;;;8.27;5.40;;;;;;;;;;4957493;29;20196;-72
2021/11/22 10:26:46;;;;;;;11.87;5.40;;;;;;;;;;4951139;28;20192;-73
2021/11/22 10:29:50;;;;;;;8.40;5.53;;;;;;;;;;4974504;28;20622;-72
2021/11/22 10:32:58;;;;;;;11.33;7.40;;;;;;;;;;4956353;29;20567;-72
2021/11/22 10:36:09;;;;;;;9.97;6.10;;;;;;;;;;4958323;29;20176;-73
2021/11/22 10:39:13;;;;;;;8.97;6.00;;;;;;;;;;4946243;29;20184;-73
2021/11/22 10:42:26;;;;;;;10.23;6.67;;;;;;;;;;4957087;29;20215;-72
2021/11/22 10:45:51;;;;;;;8.80;5.27;;;;;;;;;;4957321;29;20191;-73
2021/11/22 10:49:39;;;;;;;8.60;5.10;;;;;;;;;;4957895;29;20188;-72
2021/11/22 10:52:46;;;;;;;8.93;5.00;;;;;;;;;;4957467;29;20219;-73
2021/11/22 10:55:51;;;;;;;10.70;6.77;;;;;;;;;;4957088;29;20171;-72
2021/11/22 10:59:06;;;;;;;7.77;4.50;;;;;;;;;;4957421;29;20188;-72
2021/11/22 11:02:10;;;;;;;6.13;4.43;;;;;;;;;;4957226;29;20215;-72
2021/11/22 11:05:35;;;;;;;7.03;4.63;;;;;;;;;;4957587;29;20179;-72
2021/11/22 11:08:39;;;;;;;5.83;4.17;;;;;;;;;;4957206;29;20187;-73
2021/11/22 11:11:44;;;;;;;5.43;4.20;;;;;;;;;;4957342;29;20223;-72
2021/11/22 11:14:53;;;;;;;7.33;4.87;;;;;;;;;;4957340;29;20207;-73
2021/11/22 11:17:58;;;;;;;7.13;4.80;;;;;;;;;;4957063;29;20196;-72
2021/11/22 11:21:02;;;;;;;7.07;4.67;;;;;;;;;;4956949;29;20219;-73
2021/11/22 11:24:07;;;;;;;7.53;4.93;;;;;;;;;;4955396;28;20171;-73
2021/11/22 11:27:11;;;;;;;6.60;4.77;;;;;;;;;;4957121;29;20180;-73
2021/11/22 11:30:21;;;;;;;6.17;4.93;;;;;;;;;;4957140;29;20520;-72
2021/11/22 11:33:25;;;;;;;5.90;4.40;;;;;;;;;;4957197;29;20191;-72
2021/11/22 11:36:48;;;;;;;5.70;4.20;;;;;;;;;;4956735;29;20172;-72
2021/11/22 11:40:31;;;;;;;10.37;6.10;;;;;;;;;;4956140;29;20180;-72
2021/11/22 11:43:52;;;;;;;5.50;4.17;;;;;;;;;;4957127;29;20176;-72
2021/11/22 11:47:09;;;;;;;6.80;4.80;;;;;;;;;;4956818;29;20655;-73
2021/11/22 11:50:28;;;;;;;7.63;4.50;;;;;;;;;;4956407;29;20196;-72
2021/11/22 11:53:33;;;;;;;7.63;3.90;;;;;;;;;;4956325;29;20191;-72
2021/11/22 11:56:46;;;;;;;6.47;4.07;;;;;;;;;;4956332;29;20187;-72
2021/11/22 11:59:52;;;;;;;7.10;4.47;;;;;;;;;;4956328;29;20188;-72
2021/11/22 12:03:03;;;;;;;5.30;4.33;;;;;;;;;;4956768;29;20176;-73
2021/11/22 12:06:07;;;;;;;6.03;3.83;;;;;;;;;;4956187;29;20666;-73
2021/11/22 12:09:36;;;;;;;7.90;4.43;;;;;;;;;;4956275;29;20199;-73
2021/11/22 12:12:52;;;;;;;8.33;3.87;;;;;;;;;;4955942;29;20226;-73
2021/11/22 12:15:56;;;;;;;6.40;4.80;;;;;;;;;;4955448;29;20543;-73
2021/11/22 12:19:39;;;;;;;6.53;4.97;;;;;;;;;;4956700;29;20188;-73
2021/11/22 12:22:49;;;;;;;5.60;4.07;;;;;;;;;;4956065;29;20219;-73
2021/11/22 12:26:00;;;;;;;6.80;4.67;;;;;;;;;;4956024;29;20179;-73
2021/11/22 12:29:06;;;;;;;5.60;4.00;;;;;;;;;;4944199;29;20183;-73
2021/11/22 12:32:33;;;;;;;9.57;6.03;;;;;;;;;;4955733;29;20219;-73
2021/11/22 12:35:38;;;;;;;13.40;9.53;;;;;;;;;;4955680;28;20207;-73
2021/11/22 12:38:42;;;;;;;7.83;4.83;;;;;;;;;;4955862;29;20184;-73
2021/11/22 12:41:48;;;;;;;6.50;3.80;;;;;;;;;;4955812;29;20241;-73
2021/11/22 12:44:57;;;;;;;6.30;4.10;;;;;;;;;;4955188;29;20180;-73
2021/11/22 12:48:24;;;;;;;5.60;4.13;;;;;;;;;;4954899;28;20188;-73
2021/11/22 12:51:43;;;;;;;6.13;4.67;;;;;;;;;;4955593;29;20220;-73
2021/11/22 12:54:49;;;;;;;8.57;5.00;;;;;;;;;;4955462;29;20566;-73
2021/11/22 12:58:08;;;;;;;8.20;5.07;;;;;;;;;;4942750;29;20208;-73
2021/11/22 13:01:24;;;;;;;7.83;4.53;;;;;;;;;;4954164;29;20227;-73
2021/11/22 13:04:48;;;;;;;11.57;6.70;;;;;;;;;;4954573;29;20195;-73
2021/11/22 13:07:52;;;;;;;9.07;6.23;;;;;;;;;;4952132;29;20188;-73
2021/11/22 13:11:01;;;;;;;9.10;5.00;;;;;;;;;;4955321;29;20215;-73
2021/11/22 13:14:09;;;;;;;6.43;4.67;;;;;;;;;;4935836;29;20208;-73
2021/11/22 13:17:14;;;;;;;7.93;4.47;;;;;;;;;;4944442;29;20196;-73
2021/11/22 13:20:18;;;;;;;6.53;4.23;;;;;;;;;;4954980;29;20200;-73
2021/11/22 13:23:25;;;;;;;8.53;4.43;;;;;;;;;;4935573;29;20191;-73
2021/11/22 13:26:30;;;;;;;7.03;3.80;;;;;;;;;;4951808;29;20179;-74
2021/11/22 13:29:37;;;;;;;6.47;3.60;;;;;;;;;;4950904;29;20175;-72
2021/11/22 13:32:57;;;;;;;8.87;3.77;;;;;;;;;;4950674;29;20215;-72
2021/11/22 13:36:02;;;;;;;7.47;3.67;;;;;;;;;;4938469;29;20227;-73
2021/11/22 13:39:29;;;;;;;4.10;3.33;;;;;;;;;;4951663;29;20183;-72
2021/11/22 13:42:33;;;;;;;4.40;3.63;;;;;;;;;;4951224;29;20223;-73
2021/11/22 13:45:39;;;;;;;7.03;3.80;;;;;;;;;;4951300;29;20214;-72
2021/11/22 13:48:51;;;;;;;7.23;4.13;;;;;;;;;;4955214;29;20706;-72
2021/11/22 13:51:55;;;;;;;5.23;4.10;;;;;;;;;;4945917;29;20227;-73
2021/11/22 13:55:01;;;;;;;7.90;4.53;;;;;;;;;;4936059;29;20212;-75
2021/11/22 13:58:12;;;;;;;5.40;4.53;;;;;;;;;;4935712;29;20203;-73
2021/11/22 14:01:17;;;;;;;6.20;4.37;;;;;;;;;;4948193;29;20219;-72
2021/11/22 14:04:24;;;;;;;5.80;4.60;;;;;;;;;;4953870;29;20199;-73
2021/11/22 14:07:52;;;;;;;7.63;4.93;;;;;;;;;;4954077;29;20191;-73
2021/11/22 14:10:56;;;;;;;9.23;5.27;;;;;;;;;;4954332;29;20699;-73
2021/11/22 14:14:01;;;;;;;7.13;5.30;;;;;;;;;;4954704;29;20206;-73
2021/11/22 14:17:05;;;;;;;10.40;5.10;;;;;;;;;;4951419;29;20531;-73
2021/11/22 14:20:12;;;;;;;6.20;5.13;;;;;;;;;;4955046;29;20547;-72
2021/11/22 14:23:25;;;;;;;7.93;5.23;;;;;;;;;;4954480;29;20187;-72
2021/11/22 14:26:31;;;;;;;10.40;5.63;;;;;;;;;;4954362;29;20199;-73
2021/11/22 14:29:35;;;;;;;9.60;5.97;;;;;;;;;;4953916;29;20187;-72
2021/11/22 14:36:47;;;;;;;11.03;5.47;;;;;;;;;;4935366;29;20212;-73
2021/11/22 14:40:00;;;;;;;9.37;5.67;;;;;;;;;;4942765;29;20207;-73
2021/11/22 14:43:13;;;;;;;8.97;5.60;;;;;;;;;;4953573;29;20644;-73
2021/11/22 14:46:30;;;;;;;8.47;5.67;;;;;;;;;;4954072;29;20180;-73
2021/11/22 14:49:34;;;;;;;7.47;5.50;;;;;;;;;;4954031;29;20192;-73
2021/11/22 14:52:38;;;;;;;7.13;4.90;;;;;;;;;;4953853;29;20571;-72
2021/11/22 14:55:43;;;;;;;7.63;5.47;;;;;;;;;;4934124;29;20199;-73
2021/11/22 14:58:53;;;;;;;10.97;6.83;;;;;;;;;;4951111;28;20195;-73
2021/11/22 15:02:01;;;;;;;12.93;6.50;;;;;;;;;;4953934;29;20215;-73
2021/11/22 15:05:05;;;;;;;8.33;5.60;;;;;;;;;;4944906;29;20197;-73
2021/11/22 15:08:19;;;;;;;7.40;5.87;;;;;;;;;;4946250;29;20533;-73
2021/11/22 15:11:35;;;;;;;9.17;5.90;;;;;;;;;;4953302;29;20223;-73
2021/11/22 15:14:46;;;;;;;7.27;5.37;;;;;;;;;;4953753;29;20207;-73
2021/11/22 15:17:50;;;;;;;25.13;14.30;;;;;;;;;;4953595;29;20203;-73
2021/11/22 15:20:55;;;;;;;11.27;7.17;;;;;;;;;;4953431;29;20227;-74
2021/11/22 15:23:59;;;;;;;11.70;7.13;;;;;;;;;;4947681;29;20213;-73
2021/11/22 15:27:05;;;;;;;10.73;6.33;;;;;;;;;;4953272;29;20187;-72
2021/11/22 15:30:14;;;;;;;10.07;6.70;;;;;;;;;;4934453;29;20176;-73
2021/11/22 15:33:20;;;;;;;10.07;6.17;;;;;;;;;;4933593;29;20193;-73
2021/11/22 15:36:24;;;;;;;10.87;6.07;;;;;;;;;;4944397;29;20228;-73
2021/11/22 15:39:31;;;;;;;8.57;6.20;;;;;;;;;;4952628;29;20195;-73
2021/11/22 15:42:35;;;;;;;10.10;6.60;;;;;;;;;;4947152;28;20211;-73
2021/11/22 15:45:40;;;;;;;9.67;6.10;;;;;;;;;;4950360;29;20188;-74
2021/11/22 15:48:44;;;;;;;9.33;6.13;;;;;;;;;;4953296;29;20199;-73
2021/11/22 15:51:49;;;;;;;11.17;6.97;;;;;;;;;;4934208;29;20227;-74
2021/11/22 15:54:53;;;;;;;9.00;6.63;;;;;;;;;;4937314;29;20195;-73
2021/11/22 15:57:57;;;;;;;7.33;5.93;;;;;;;;;;4952433;29;20184;-73
2021/11/22 16:01:02;;;;;;;6.73;6.03;;;;;;;;;;4933812;29;20236;-74
2021/11/22 16:04:09;;;;;;;8.07;6.20;;;;;;;;;;4941057;29;20187;-74
2021/11/22 16:07:13;;;;;;;8.50;6.07;;;;;;;;;;4933327;29;20200;-74
2021/11/22 16:10:17;;;;;;;8.47;6.00;;;;;;;;;;4951791;28;20211;-74
2021/11/22 16:13:22;;;;;;;7.90;5.43;;;;;;;;;;4945546;29;20224;-74
2021/11/22 16:16:26;;;;;;;8.47;5.20;;;;;;;;;;4951930;29;20219;-74
2021/11/22 16:19:31;;;;;;;11.50;5.07;;;;;;;;;;4952652;29;20528;-73
2021/11/22 16:22:35;;;;;;;9.03;6.73;;;;;;;;;;4951465;29;20219;-74
2021/11/22 16:25:39;;;;;;;8.23;6.13;;;;;;;;;;4950089;29;20196;-74
2021/11/22 16:28:44;;;;;;;6.80;5.47;;;;;;;;;;4951261;29;20199;-73
2021/11/22 16:31:48;;;;;;;7.83;6.70;;;;;;;;;;4932605;29;20747;-73
2021/11/22 16:34:53;;;;;;;10.57;5.57;;;;;;;;;;4943667;29;20207;-73
2021/11/22 16:37:57;;;;;;;7.03;5.80;;;;;;;;;;4949799;29;20188;-74
2021/11/22 16:41:03;;;;;;;6.50;5.13;;;;;;;;;;4950860;29;20231;-73
2021/11/22 16:44:08;;;;;;;6.60;5.13;;;;;;;;;;4949522;29;20192;-73
2021/11/22 16:47:12;;;;;;;10.23;5.87;;;;;;;;;;4931280;29;20208;-74
2021/11/22 16:50:17;;;;;;;8.97;5.30;;;;;;;;;;4950738;29;20191;-74
2021/11/22 16:53:22;;;;;;;8.27;5.30;;;;;;;;;;4951172;29;20678;-73
2021/11/22 16:56:26;;;;;;;9.23;4.63;;;;;;;;;;4940306;29;20753;-73
2021/11/22 16:59:30;;;;;;;7.63;5.50;;;;;;;;;;4947276;29;20192;-74
2021/11/22 17:02:34;;;;;;;7.07;5.17;;;;;;;;;;4951953;29;20219;-73
2021/11/22 17:05:39;;;;;;;6.70;5.17;;;;;;;;;;4951514;29;20647;-73
2021/11/22 17:08:43;;;;;;;6.53;5.13;;;;;;;;;;4952035;29;20188;-74
2021/11/22 17:11:48;;;;;;;8.53;5.73;;;;;;;;;;4932854;29;20219;-74
2021/11/22 17:14:52;;;;;;;6.47;4.90;;;;;;;;;;4940823;29;20532;-75
2021/11/22 17:17:57;;;;;;;9.07;5.47;;;;;;;;;;4950952;29;20175;-74
2021/11/22 17:21:01;;;;;;;6.57;4.80;;;;;;;;;;4951044;28;20552;-73
2021/11/22 17:24:05;;;;;;;5.43;3.87;;;;;;;;;;4951256;29;20203;-73
2021/11/22 17:27:09;;;;;;;5.23;4.40;;;;;;;;;;4949113;29;20195;-74
2021/11/22 17:30:14;;;;;;;5.60;4.40;;;;;;;;;;4951559;29;20543;-74
2021/11/22 17:33:18;;;;;;;7.47;4.47;;;;;;;;;;4951360;29;20188;-73
2021/11/22 17:36:23;;;;;;;5.07;3.90;;;;;;;;;;4950552;29;20211;-74
2021/11/22 17:39:27;;;;;;;4.07;3.40;;;;;;;;;;4951598;29;20203;-74
2021/11/22 17:42:31;;;;;;;3.63;3.23;;;;;;;;;;4951007;29;20223;-74
2021/11/22 17:45:35;;;;;;;4.07;3.20;;;;;;;;;;4951001;29;20199;-75
2021/11/22 17:48:39;;;;;;;3.70;3.27;;;;;;;;;;4950784;29;20187;-74
2021/11/22 17:51:44;;;;;;;3.53;3.20;;;;;;;;;;4951162;29;20227;-74
2021/11/22 17:54:48;;;;;;;6.80;4.63;;;;;;;;;;4950537;29;20180;-74
2021/11/22 17:57:52;;;;;;;9.47;5.63;;;;;;;;;;4950837;29;20215;-74
2021/11/22 18:00:56;;;;;;;4.20;3.17;;;;;;;;;;4951468;29;20222;-74
2021/11/22 18:04:04;;;;;;;6.17;4.10;;;;;;;;;;4951464;29;20184;-74
2021/11/22 18:07:08;;;;;;;4.10;2.90;;;;;;;;;;4938975;29;20188;-75
2021/11/22 18:10:14;;;;;;;5.87;4.00;;;;;;;;;;4950094;29;20203;-74
2021/11/22 18:13:21;;;;;;;4.00;3.03;;;;;;;;;;4950673;29;20211;-73
2021/11/22 18:16:26;;;;;;;4.33;3.13;;;;;;;;;;4936289;29;20568;-73
2021/11/22 18:19:30;;;;;;;8.23;4.03;;;;;;;;;;4944797;29;20200;-74
2021/11/22 18:22:35;;;;;;;6.63;3.93;;;;;;;;;;4950103;29;20698;-74
2021/11/22 18:25:40;;;;;;;10.33;6.10;;;;;;;;;;4932061;29;20184;-74